AirNav   Pilot Hours Calculator
 
 1121 users online  

0PN7 Drillmore Acres Airport
Newburg, Pennsylvania, USA

GOING TO NEWBURG?


FAA INFORMATION EFFECTIVE 05 DECEMBER 2019

Location

FAA Identifier: 0PN7
Lat/Long: 40-07-42.0000N 077-37-53.0000W
40-07.700000N 077-37.883333W
40.1283333,-77.6313889
(estimated)
Elevation: 680 ft. / 207 m (estimated)
Variation: 10W (1995)
From city: 5 miles W of NEWBURG, PA
Time zone: UTC -5 (UTC -4 during Daylight Saving Time)
Zip code: 17240

Airport Operations

Airport use: Private use. Permission required prior to landing
Activation date: 04/1999
Control tower: no
ARTCC: NEW YORK CENTER
FSS: WILLIAMSPORT FLIGHT SERVICE STATION
Attendance: UNATNDD
Wind indicator: yes
Segmented circle: no

Airport Communications

WX AWOS-3 at N68 (9 nm S): 120.725 (717-261-1943)

Nearby radio navigation aids

VOR radial/distance  VOR name  Freq  Var
THSr058/18.8ST THOMAS VORTAC115.0007W
HARr258/27.8HARRISBURG VORTAC112.5010W
HGRr029/(27.8)HAGERSTOWN VOR109.8007W

Airport Services

Runway Information

Runway 13/31

Dimensions: 2800 x 100 ft. / 853 x 30 m
Surface: turf, in good condition
RUNWAY 13  RUNWAY 31
Traffic pattern: leftleft
Displaced threshold: 200 ft.no
Obstructions: 50 ft. trees, 200 ft. from runwaynone

Airport Ownership and Management from official FAA records

Ownership: Privately-owned
Owner: NEIL NEGLEY
16199 CUMBERLAND HWY
NEWBURG, PA 17240
Phone 717-377-1290
Manager: NEIL NEGLEY
16199 CUMBERLAND HWY
NEWBURG, PA 17240
Phone 717-377-1290
DUSTIN NEGLEY 717-558-5463

Airport Operational Statistics

Aircraft based on the field: 4
Single engine airplanes: 4
    

Additional Remarks

FOR CD CTC HARRISBURG APCH AT 800-932-0712.

Instrument Procedures

There are no published instrument procedures at 0PN7.

Some nearby airports with instrument procedures:

N68 - Franklin County Regional Airport (9 nm S)
N94 - Carlisle Airport (21 nm E)
W05 - Gettysburg Regional Airport (24 nm SE)
KHGR - Hagerstown Regional Airport-Richard A Henson Field (26 nm S)
P34 - Mifflintown Airport (30 nm N)
 
Loc | Ops | Rwys | IFR | FBO | Links
Com | Nav | Svcs | Stats | Notes
Area around 0PN7 (Drillmore Acres Airport)
 
Road maps at: MapQuest Bing Google
 
Aerial photo
No photo
 
Sectional chart

 
Airport distance calculator
Flying to Drillmore Acres Airport? Find the distance to fly.

From to 0PN7

Sunrise and sunset
Times for 05-Dec-2019
 Local
(UTC-5)
 Zulu
(UTC)
Morning civil twilight06:4811:48
Sunrise07:1812:18
Sunset16:4421:44
Evening civil twilight17:1422:14

Current date and time
Zulu (UTC)  06-Dec-2019 03:30:53
Local (UTC-5)  05-Dec-2019 22:30:53
 
METAR
KHGR 
26nm S 
060253Z 20003KT 10SM BKN095 03/M06 A3012 RMK AO2 SLP215 T00281056 51016
KRVL 
33nm N 
060315Z AUTO 19005KT 10SM CLR 02/M04 A3009 RMK AO2
KAOO 
33nm W 
060253Z AUTO 00000KT 10SM OVC090 00/M04 A3008 RMK AO2 SLP201 T00001044 51004
KCXY 
36nm E 
060256Z AUTO 28004KT 10SM CLR 04/M06 A3011 RMK AO2 SLP200 T00391056 51013
KTHV 
37nm E 
060253Z AUTO 00000KT 10SM CLR M03/M07 A3011 RMK AO2 SLP205 T10281067 51016
KMDT 
40nm E 
060256Z 28004KT 10SM FEW048 FEW200 03/M05 A3011 RMK AO2 SLP199 T00331050 53015
KHMZ 
41nm W 
060310Z AUTO 00000KT 10SM CLR M03/M05 A3010 RMK AO2 T10261053
KDMW 
42nm SE 
060315Z AUTO 00000KT 10SM CLR 02/M03 A3012 RMK AO2
KUNV 
44nm N 
060253Z 00000KT 10SM SKC 00/M04 A3008
KFDK 
44nm S 
060315Z AUTO 16004KT 10SM CLR 02/M03 A3014 RMK AO2
TAF
KAOO 
33nm W 
052211Z 0522/0618 29010G17KT P6SM SCT035 FM060000 28009KT P6SM SCT035 FM060600 23007KT P6SM BKN100 FM061500 26010KT P6SM BKN050
KMDT 
40nm E 
052212Z 0522/0618 30015G22KT P6SM BKN040 FM060100 29010KT P6SM SCT060 FM060300 29007KT P6SM SKC FM060800 15004KT P6SM BKN100 FM061600 24007KT P6SM BKN050
NOTAMs
Click for the latest NOTAMs
NOTAMs are issued by the DoD/FAA and will open in a separate window not controlled by AirNav.

 

 
 

Would you like to see your business listed on this page?

 If your business provides an interesting product or service to pilots, flight crews, aircraft, or users of the Drillmore Acres Airport, you should consider listing it here.  To start the listing process, click on the button below
 
Add a business
 

Other Pages about Drillmore Acres Airport

Update a link
 
Copyright © AirNav, LLC. All rights reserved. Privacy Policy  Contact